Time;durP1;ratioP1;P1;durP2;ratioP2;P2;SDS_P1;SDS_P2;PMS_P1;PMS_P2;Temp;Humidity;BMP_temperature;BMP_pressure;BME280_temperature;BME280_humidity;BME280_pressure;Samples;Min_cycle;Max_cycle;Signal;HPM_P1;HPM_P2
2022/03/17 00:00:18;;;;;;;24.02;21.42;;;;;;;10.10;69.45;101840.53;5007824;28;20552;-62
2022/03/17 00:02:44;;;;;;;23.95;21.38;;;;;;;10.11;69.13;101842.19;5026553;28;20030;-65
2022/03/17 00:05:12;;;;;;;29.73;21.73;;;;;;;10.09;69.08;101838.88;5010629;28;20052;-61
2022/03/17 00:07:39;;;;;;;23.95;21.35;;;;;;;10.10;69.22;101845.72;5026344;28;20489;-60
2022/03/17 00:10:14;;;;;;;23.85;21.30;;;;;;;10.05;69.87;101832.19;5012894;28;20029;-62
2022/03/17 00:12:40;;;;;;;25.05;21.80;;;;;;;10.09;69.70;101833.69;5006922;28;20057;-67
2022/03/17 00:15:05;;;;;;;24.38;21.67;;;;;;;10.07;69.30;101830.34;5006518;28;20041;-62
2022/03/17 00:17:31;;;;;;;25.77;22.30;;;;;;;10.08;69.57;101829.41;5006167;28;20033;-64
2022/03/17 00:19:56;;;;;;;24.15;21.27;;;;;;;10.08;69.92;101834.59;5006848;28;20042;-60
2022/03/17 00:22:22;;;;;;;24.70;21.83;;;;;;;10.04;69.98;101840.91;4988505;28;20030;-61
2022/03/17 00:24:48;;;;;;;25.65;22.38;;;;;;;10.01;69.86;101830.72;5006258;28;20029;-64
2022/03/17 00:27:13;;;;;;;25.35;22.52;;;;;;;10.06;70.14;101839.03;5005722;28;20029;-61
2022/03/17 00:29:39;;;;;;;25.80;22.83;;;;;;;10.04;70.39;101845.25;5006092;28;20045;-62
2022/03/17 00:32:06;;;;;;;25.08;22.13;;;;;;;10.05;69.91;101837.38;5006974;28;20029;-62
2022/03/17 00:34:33;;;;;;;25.42;22.80;;;;;;;10.05;70.43;101842.56;4992767;28;20062;-61
2022/03/17 00:36:58;;;;;;;24.75;22.05;;;;;;;10.04;69.73;101835.72;4987274;28;20034;-65
2022/03/17 00:39:25;;;;;;;25.02;22.02;;;;;;;10.00;70.00;101829.06;5002816;28;20032;-63
2022/03/17 00:41:50;;;;;;;25.17;22.48;;;;;;;10.00;70.01;101828.22;5006443;28;20136;-64
2022/03/17 00:44:15;;;;;;;24.42;21.63;;;;;;;10.02;70.17;101826.38;5006032;28;20117;-61
2022/03/17 00:46:41;;;;;;;25.52;22.73;;;;;;;10.02;70.08;101840.16;5006723;28;20045;-62
2022/03/17 00:49:07;;;;;;;25.23;22.02;;;;;;;10.02;70.00;101836.72;5006472;28;20429;-61
2022/03/17 00:51:33;;;;;;;26.63;22.83;;;;;;;10.02;70.30;101832.38;5006312;28;20022;-60
2022/03/17 00:53:58;;;;;;;25.08;22.38;;;;;;;10.01;69.94;101843.69;5005974;28;20044;-62
2022/03/17 00:56:24;;;;;;;24.85;22.15;;;;;;;10.01;70.26;101841.09;5005889;28;20474;-62
2022/03/17 00:58:49;;;;;;;26.63;22.67;;;;;;;10.01;70.04;101841.09;5004681;28;20029;-61
2022/03/17 01:01:15;;;;;;;25.42;22.60;;;;;;;9.98;70.17;101835.28;5005953;28;20084;-62
2022/03/17 01:03:45;;;;;;;25.33;22.20;;;;;;;9.96;70.68;101831.94;5006288;28;20886;-61
2022/03/17 01:06:11;;;;;;;26.00;23.13;;;;;;;9.98;69.91;101840.47;5006523;28;20446;-61
2022/03/17 01:08:38;;;;;;;26.35;23.58;;;;;;;9.97;70.36;101839.59;5006263;28;20458;-62
2022/03/17 01:11:07;;;;;;;25.73;22.38;;;;;;;9.94;70.68;101836.41;5005931;28;20022;-61
2022/03/17 01:13:32;;;;;;;25.40;22.27;;;;;;;9.89;71.07;101831.50;4987298;28;20134;-63
2022/03/17 01:15:58;;;;;;;25.65;22.48;;;;;;;9.94;70.14;101837.22;5005722;28;20132;-60
2022/03/17 01:18:23;;;;;;;27.55;23.00;;;;;;;9.92;70.71;101841.69;5005486;28;20034;-63
2022/03/17 01:20:50;;;;;;;27.75;22.90;;;;;;;9.96;70.58;101848.31;5005850;28;20028;-60
2022/03/17 01:23:16;;;;;;;26.67;22.77;;;;;;;9.93;70.76;101822.59;5005903;28;20076;-62
2022/03/17 01:25:41;;;;;;;27.38;22.60;;;;;;;9.95;70.83;101841.47;5005139;28;20505;-61
2022/03/17 01:28:07;;;;;;;26.38;23.50;;;;;;;9.95;71.15;101830.28;5005770;28;20022;-61
2022/03/17 01:30:35;;;;;;;25.92;22.27;;;;;;;9.96;70.68;101837.94;5005830;28;20033;-60
2022/03/17 01:33:00;;;;;;;25.73;22.77;;;;;;;9.97;71.11;101844.78;5005111;28;20772;-60
2022/03/17 01:35:25;;;;;;;25.92;21.83;;;;;;;9.98;71.02;101832.69;4998071;28;20041;-63
2022/03/17 01:37:51;;;;;;;27.63;22.33;;;;;;;9.96;70.77;101832.75;5005184;28;20025;-61
2022/03/17 01:40:16;;;;;;;26.10;22.48;;;;;;;9.98;71.29;101835.28;5005165;28;20030;-61
2022/03/17 01:42:41;;;;;;;25.70;22.08;;;;;;;9.97;71.00;101834.44;5005493;28;20033;-63
2022/03/17 01:45:09;;;;;;;27.23;22.65;;;;;;;9.97;71.59;101837.00;5006096;28;20095;-61
2022/03/17 01:47:36;;;;;;;26.65;22.38;;;;;;;9.96;71.57;101837.13;5005602;28;20034;-61
2022/03/17 01:50:06;;;;;;;28.63;22.52;;;;;;;10.00;71.90;101843.78;5005485;28;20042;-61
2022/03/17 01:52:32;;;;;;;25.45;21.63;;;;;;;9.99;71.72;101842.97;4987409;28;20037;-63
2022/03/17 01:54:57;;;;;;;25.90;21.80;;;;;;;9.99;71.84;101832.59;5005252;28;20779;-61
2022/03/17 01:57:23;;;;;;;25.90;23.10;;;;;;;10.02;72.27;101824.59;4987660;28;20029;-62
2022/03/17 01:59:50;;;;;;;29.15;22.42;;;;;;;10.02;72.43;101824.59;5005403;28;20529;-61
2022/03/17 02:02:15;;;;;;;26.88;22.55;;;;;;;9.99;71.66;101819.63;5005360;28;20080;-61
2022/03/17 02:04:42;;;;;;;24.30;21.45;;;;;;;10.05;72.22;101832.19;5005201;28;20045;-61
2022/03/17 02:07:08;;;;;;;26.77;21.92;;;;;;;10.06;72.56;101838.22;4987805;28;20086;-61
2022/03/17 02:09:35;;;;;;;27.27;22.88;;;;;;;10.05;72.48;101837.38;5006877;28;20048;-66
2022/03/17 02:15:06;;;;;;;28.27;23.02;;;;;;;10.09;72.89;101838.88;5009130;28;20077;-60
2022/03/17 02:17:39;;;;;;;28.35;23.10;;;;;;;10.07;73.91;101835.50;5008736;28;20040;-61
2022/03/17 02:20:06;;;;;;;29.20;23.60;;;;;;;10.08;73.95;101832.00;5008540;28;20033;-62
2022/03/17 02:22:33;;;;;;;29.45;23.73;;;;;;;10.08;73.86;101832.00;5008350;28;20049;-62
2022/03/17 02:27:47;;;;;;;27.75;23.77;;;;;;;10.09;74.16;101831.09;5009118;28;20132;-61
2022/03/17 02:30:15;;;;;;;28.63;23.00;;;;;;;10.09;73.89;101836.28;5000878;28;20108;-61
2022/03/17 02:32:41;;;;;;;27.45;22.65;;;;;;;10.05;74.09;101829.59;5000425;28;20367;-62
2022/03/17 02:35:09;;;;;;;27.63;23.73;;;;;;;10.07;74.23;101839.88;4996968;28;20030;-61
2022/03/17 02:37:35;;;;;;;26.10;23.15;;;;;;;10.07;74.59;101838.09;5008371;28;20034;-60
2022/03/17 02:40:04;;;;;;;27.52;23.20;;;;;;;10.07;73.88;101845.88;5002513;28;20059;-63
2022/03/17 02:42:30;;;;;;;28.55;24.92;;;;;;;10.08;74.41;101837.16;4991133;28;20116;-61
2022/03/17 02:44:58;;;;;;;27.95;24.05;;;;;;;10.10;74.68;101835.34;5008445;28;20461;-61
2022/03/17 02:47:24;;;;;;;29.95;24.65;;;;;;;10.10;74.38;101845.72;5005351;28;20076;-61
2022/03/17 02:49:50;;;;;;;32.38;25.02;;;;;;;10.11;74.70;101859.50;5001881;28;20026;-61
2022/03/17 02:52:15;;;;;;;30.35;24.63;;;;;;;10.10;75.63;101856.06;5007880;28;20069;-61
2022/03/17 02:54:40;;;;;;;30.05;24.30;;;;;;;10.11;76.51;101857.72;5005567;28;20136;-61
2022/03/17 02:57:06;;;;;;;30.63;25.08;;;;;;;10.12;76.36;101866.34;5023110;28;20065;-63
2022/03/17 02:59:32;;;;;;;31.33;26.02;;;;;;;10.11;77.20;101857.72;5007642;28;20072;-63
2022/03/17 03:01:57;;;;;;;33.10;26.50;;;;;;;10.14;77.36;101874.84;5008220;28;20061;-65
2022/03/17 03:04:23;;;;;;;34.17;26.08;;;;;;;10.07;78.00;101877.00;5005450;28;20462;-62
2022/03/17 03:06:49;;;;;;;31.20;25.85;;;;;;;10.12;78.32;101884.47;4995293;28;20029;-61
2022/03/17 03:09:14;;;;;;;32.95;26.38;;;;;;;10.13;77.88;101895.69;4988811;28;20029;-64
2022/03/17 03:11:40;;;;;;;33.13;27.15;;;;;;;10.02;78.81;101894.59;4999431;28;20073;-60
2022/03/17 03:14:09;;;;;;;34.55;27.67;;;;;;;10.10;79.31;101912.28;5006947;28;20560;-64
2022/03/17 03:16:37;;;;;;;32.60;25.60;;;;;;;10.03;80.65;101916.97;5007669;28;20045;-60
2022/03/17 03:19:03;;;;;;;24.65;20.67;;;;;;;10.00;80.79;101917.19;5006941;28;20030;-63
2022/03/17 03:21:28;;;;;;;18.92;16.02;;;;;;;9.87;82.37;101916.28;4989161;28;20469;-62
2022/03/17 03:23:54;;;;;;;17.05;15.20;;;;;;;9.89;82.08;101935.16;5001279;28;20045;-61
2022/03/17 03:26:19;;;;;;;16.55;14.77;;;;;;;9.79;83.36;101934.88;4993480;28;20112;-64
2022/03/17 03:28:44;;;;;;;16.77;15.00;;;;;;;9.74;84.04;101936.06;4992777;28;20034;-61
2022/03/17 03:31:10;;;;;;;17.85;15.95;;;;;;;9.64;83.76;101940.16;5001105;28;20025;-61
2022/03/17 03:33:35;;;;;;;18.45;16.42;;;;;;;9.65;83.95;101947.00;5006450;28;20524;-64
2022/03/17 03:38:46;;;;;;;18.65;16.65;;;;;;;9.50;84.57;101959.91;5003520;28;20088;-61
2022/03/17 03:41:11;;;;;;;17.90;16.02;;;;;;;9.36;84.87;101965.09;5002358;28;20076;-65
2022/03/17 03:43:36;;;;;;;19.30;17.20;;;;;;;9.38;84.90;101986.53;4978958;28;20030;-61
2022/03/17 03:46:01;;;;;;;11.82;9.85;;;;;;;9.22;83.21;101996.09;5007377;28;20034;-64
2022/03/17 03:48:27;;;;;;;11.38;7.40;;;;;;;9.15;82.02;102007.72;5007417;28;20470;-61
2022/03/17 03:50:52;;;;;;;8.70;6.60;;;;;;;9.03;82.01;102017.84;5007137;28;20125;-61
2022/03/17 03:53:18;;;;;;;8.43;5.47;;;;;;;8.88;81.16;102025.63;4988765;28;20032;-62
2022/03/17 03:55:43;;;;;;;7.90;4.70;;;;;;;8.76;80.98;102032.31;5006960;28;20416;-61
2022/03/17 03:58:09;;;;;;;7.43;4.47;;;;;;;8.62;80.60;102042.59;5005552;28;20417;-61
2022/03/17 04:00:34;;;;;;;7.22;3.88;;;;;;;8.63;80.93;102046.84;4997343;28;20026;-63
2022/03/17 04:03:00;;;;;;;8.30;4.13;;;;;;;8.56;80.48;102058.44;5006537;28;20113;-62
2022/03/17 04:05:37;;;;;;;7.88;4.30;;;;;;;8.47;81.40;102060.56;5006708;28;20573;-60
2022/03/17 04:08:02;;;;;;;7.65;4.45;;;;;;;8.42;80.79;102062.56;5006165;28;20038;-64
2022/03/17 04:10:28;;;;;;;7.32;4.82;;;;;;;8.36;81.48;102062.88;5006694;28;20421;-61
2022/03/17 04:12:54;;;;;;;7.82;5.38;;;;;;;8.36;80.87;102073.22;5007208;28;20419;-62
2022/03/17 04:15:19;;;;;;;8.82;5.63;;;;;;;8.30;81.44;102083.84;5006094;28;20037;-64
2022/03/17 04:17:45;;;;;;;10.60;6.50;;;;;;;8.28;81.22;102090.88;5006972;28;20466;-61
2022/03/17 04:20:10;;;;;;;10.25;6.68;;;;;;;8.20;81.24;102100.75;5006749;28;20100;-61
2022/03/17 04:22:37;;;;;;;11.40;6.90;;;;;;;8.17;81.55;102103.50;5006101;28;20040;-61
2022/03/17 04:25:03;;;;;;;10.82;6.55;;;;;;;8.13;81.69;102112.31;5006600;28;20029;-63
2022/03/17 04:27:28;;;;;;;9.60;7.70;;;;;;;8.11;81.92;102109.81;5006410;28;20033;-61
2022/03/17 04:29:54;;;;;;;11.52;8.02;;;;;;;8.08;82.09;102130.63;5006877;28;20034;-61
2022/03/17 04:32:20;;;;;;;13.43;9.13;;;;;;;8.03;82.21;102131.75;5004067;28;20040;-64
2022/03/17 04:34:45;;;;;;;11.55;8.60;;;;;;;7.99;82.13;102137.09;5000838;28;20457;-65
2022/03/17 04:37:10;;;;;;;11.18;8.95;;;;;;;7.99;82.52;102150.03;5005924;28;20044;-61
2022/03/17 04:39:36;;;;;;;13.88;9.20;;;;;;;7.98;82.80;102150.94;4999678;28;20029;-62
2022/03/17 04:42:01;;;;;;;11.95;9.60;;;;;;;8.01;83.05;102156.84;5006605;28;20103;-68
2022/03/17 04:44:26;;;;;;;14.77;10.38;;;;;;;7.98;82.77;102169.03;5006161;28;20049;-61
2022/03/17 04:46:52;;;;;;;13.15;10.82;;;;;;;7.99;82.97;102191.34;4990819;28;20414;-62
2022/03/17 04:49:17;;;;;;;15.27;11.88;;;;;;;7.98;82.89;102187.09;4987393;28;20482;-61
2022/03/17 04:51:42;;;;;;;16.83;11.98;;;;;;;7.95;82.88;102192.41;4994909;28;20695;-62
2022/03/17 04:54:08;;;;;;;19.65;13.48;;;;;;;8.01;82.25;102205.94;4985293;28;20023;-61
2022/03/17 04:56:33;;;;;;;19.30;13.38;;;;;;;7.98;81.80;102202.59;4987815;28;20042;-62
2022/03/17 04:58:59;;;;;;;17.20;12.98;;;;;;;7.96;82.62;102214.75;4999279;28;20034;-62
2022/03/17 05:01:24;;;;;;;19.65;13.13;;;;;;;7.90;82.38;102219.38;4990098;28;20053;-60
2022/03/17 05:03:49;;;;;;;19.60;14.00;;;;;;;7.87;82.73;102215.22;4990832;28;20026;-62
2022/03/17 05:06:16;;;;;;;19.33;14.32;;;;;;;7.88;82.96;102236.72;4988970;28;20050;-64
2022/03/17 05:08:42;;;;;;;15.90;10.60;;;;;;;7.81;82.09;102225.84;4990388;28;20483;-61
2022/03/17 05:11:09;;;;;;;18.30;10.10;;;;;;;7.76;81.14;102247.63;4982850;28;20469;-62
2022/03/17 05:13:35;;;;;;;15.98;9.70;;;;;;;7.70;80.81;102256.50;4992489;28;20497;-61
2022/03/17 05:16:00;;;;;;;17.30;8.75;;;;;;;7.68;80.82;102266.91;4999672;28;20454;-65
2022/03/17 05:18:26;;;;;;;12.10;6.57;;;;;;;7.62;79.61;102281.81;5005624;28;20458;-61
2022/03/17 05:20:51;;;;;;;13.27;4.80;;;;;;;7.58;78.16;102285.47;5006059;28;20042;-60
2022/03/17 05:23:19;;;;;;;10.93;4.60;;;;;;;7.52;78.01;102296.06;5005477;28;20429;-63
2022/03/17 05:25:47;;;;;;;14.25;4.97;;;;;;;7.41;78.43;102294.81;5006307;28;20030;-62
2022/03/17 05:28:12;;;;;;;16.17;5.45;;;;;;;7.47;78.46;102298.03;4988020;28;20027;-62
2022/03/17 05:30:39;;;;;;;14.00;5.47;;;;;;;7.42;78.91;102309.38;5004836;28;20026;-61
2022/03/17 05:33:06;;;;;;;15.02;4.93;;;;;;;7.43;78.57;102317.97;4987407;28;20116;-61
2022/03/17 05:35:32;;;;;;;13.48;4.55;;;;;;;7.36;78.88;102317.41;4989858;28;20026;-61
2022/03/17 05:37:58;;;;;;;11.55;4.53;;;;;;;7.37;77.58;102328.56;4989159;28;20053;-61
2022/03/17 05:40:24;;;;;;;11.90;4.60;;;;;;;7.30;78.14;102333.16;4987549;28;20034;-61
2022/03/17 05:42:54;;;;;;;14.27;4.90;;;;;;;7.29;77.70;102341.81;5000455;28;20026;-61
2022/03/17 05:45:21;;;;;;;12.20;4.22;;;;;;;7.30;78.62;102353.81;5000540;28;20034;-61
2022/03/17 05:47:51;;;;;;;14.68;4.10;;;;;;;7.26;77.84;102362.56;4990867;28;20030;-60
2022/03/17 05:50:20;;;;;;;11.02;3.80;;;;;;;7.24;78.21;102358.38;4991549;28;20888;-60
2022/03/17 05:52:46;;;;;;;11.05;3.15;;;;;;;7.24;76.88;102379.88;5009629;28;20030;-61
2022/03/17 05:55:13;;;;;;;11.63;4.03;;;;;;;7.20;76.94;102373.16;5009287;28;20034;-66
2022/03/17 05:57:40;;;;;;;11.95;3.15;;;;;;;7.17;77.59;102381.03;5008801;28;20025;-61
2022/03/17 06:00:07;;;;;;;8.60;3.15;;;;;;;7.13;77.07;102400.13;5008664;28;20030;-61
2022/03/17 06:02:34;;;;;;;10.65;3.05;;;;;;;7.13;78.41;102403.53;5007490;28;20048;-63
2022/03/17 06:05:00;;;;;;;13.02;3.42;;;;;;;7.07;78.48;102408.13;5009040;28;20153;-63
2022/03/17 06:07:25;;;;;;;14.52;3.40;;;;;;;7.05;78.94;102415.06;5008530;28;20521;-60
2022/03/17 06:09:50;;;;;;;10.82;3.40;;;;;;;6.97;79.29;102411.97;5008784;28;20033;-61
2022/03/17 06:12:16;;;;;;;10.55;3.13;;;;;;;6.96;79.70;102420.63;5009585;28;20104;-62
2022/03/17 06:14:42;;;;;;;8.18;2.88;;;;;;;6.95;80.24;102435.28;5009218;28;20362;-62
2022/03/17 06:17:09;;;;;;;11.10;3.90;;;;;;;6.93;80.34;102435.31;5008970;28;20099;-61
2022/03/17 06:19:34;;;;;;;12.27;3.42;;;;;;;6.93;80.62;102453.34;5008381;28;20030;-60
2022/03/17 06:22:00;;;;;;;12.07;3.50;;;;;;;6.92;79.99;102451.69;5009026;28;20480;-63
2022/03/17 06:24:25;;;;;;;12.45;3.42;;;;;;;6.91;80.36;102452.59;5003045;28;20466;-62
2022/03/17 06:26:51;;;;;;;10.40;3.30;;;;;;;6.90;80.73;102460.41;4988826;28;20030;-60
2022/03/17 06:29:16;;;;;;;10.63;3.28;;;;;;;6.89;80.21;102457.00;5008803;28;20026;-60
2022/03/17 06:31:42;;;;;;;13.18;3.35;;;;;;;6.93;80.74;102461.09;5008344;28;20386;-60
2022/03/17 06:34:08;;;;;;;11.20;3.50;;;;;;;6.93;80.19;102468.84;4995918;28;20038;-64
2022/03/17 06:36:33;;;;;;;12.98;3.47;;;;;;;6.93;80.25;102484.31;4993925;28;20040;-61
2022/03/17 06:38:59;;;;;;;13.38;3.38;;;;;;;6.97;80.56;102484.22;4998291;28;20030;-65
2022/03/17 06:41:24;;;;;;;11.60;3.20;;;;;;;6.98;80.07;102485.88;5008320;28;20036;-61
2022/03/17 06:43:49;;;;;;;13.48;3.67;;;;;;;6.93;80.41;102493.78;4994496;28;20093;-60
2022/03/17 06:46:15;;;;;;;12.32;3.10;;;;;;;6.91;80.31;102491.28;4988565;28;20037;-68
2022/03/17 06:48:40;;;;;;;10.90;2.95;;;;;;;6.93;80.04;102499.78;4987927;28;20050;-61
2022/03/17 06:51:06;;;;;;;12.27;3.10;;;;;;;6.93;80.00;102510.09;4993448;28;20022;-63
2022/03/17 06:53:32;;;;;;;14.10;3.40;;;;;;;6.94;80.12;102513.56;4987818;28;20085;-61
2022/03/17 06:55:57;;;;;;;14.20;3.33;;;;;;;6.87;79.78;102523.25;4992567;28;20038;-64
2022/03/17 06:58:23;;;;;;;12.10;2.88;;;;;;;6.91;80.71;102527.41;4989293;28;20442;-67
2022/03/17 07:00:48;;;;;;;13.45;3.03;;;;;;;6.96;79.91;102534.97;4997976;28;20504;-62
2022/03/17 07:03:13;;;;;;;14.00;2.83;;;;;;;6.92;80.01;102544.53;4988279;28;20455;-61
2022/03/17 07:05:39;;;;;;;12.52;2.80;;;;;;;6.98;79.50;102552.94;4994037;28;20549;-61
2022/03/17 07:08:04;;;;;;;13.20;2.78;;;;;;;6.98;79.98;102558.09;4995532;28;20521;-63
2022/03/17 07:10:30;;;;;;;13.57;2.38;;;;;;;7.00;80.04;102561.50;4983254;28;20556;-61
2022/03/17 07:12:55;;;;;;;14.60;3.08;;;;;;;6.94;79.85;102567.72;4996335;28;20319;-70
2022/03/17 07:15:21;;;;;;;10.95;2.97;;;;;;;6.93;79.64;102572.00;5007399;28;20034;-61
2022/03/17 07:17:46;;;;;;;15.43;3.20;;;;;;;6.87;78.60;102569.66;5007698;28;20270;-63
2022/03/17 07:20:19;;;;;;;11.23;2.70;;;;;;;6.92;79.37;102580.66;4992634;28;20451;-66
2022/03/17 07:22:49;;;;;;;15.65;3.17;;;;;;;6.95;79.22;102589.19;5007927;28;20038;-61
2022/03/17 07:25:17;;;;;;;14.32;2.85;;;;;;;6.92;78.94;102595.28;5001615;28;20034;-63
2022/03/17 07:27:44;;;;;;;12.60;2.70;;;;;;;6.95;79.23;102599.53;5007525;28;20073;-62
2022/03/17 07:30:14;;;;;;;13.68;2.88;;;;;;;6.94;78.09;102609.00;5006914;28;20025;-62
2022/03/17 07:32:39;;;;;;;14.57;2.83;;;;;;;6.99;78.54;102607.06;4989878;28;20592;-64
2022/03/17 07:35:06;;;;;;;11.02;2.60;;;;;;;6.99;77.68;102627.69;4989590;28;20137;-70
2022/03/17 07:37:31;;;;;;;10.95;2.35;;;;;;;6.99;76.48;102622.53;5006650;28;20030;-61
2022/03/17 07:39:56;;;;;;;8.77;2.15;;;;;;;6.95;77.11;102633.88;4998378;28;20478;-68
2022/03/17 07:42:22;;;;;;;14.73;2.60;;;;;;;6.83;78.04;102627.44;4987685;28;20830;-61
2022/03/17 07:44:47;;;;;;;10.25;2.80;;;;;;;6.85;78.26;102646.28;5005502;28;20037;-65
2022/03/17 07:47:13;;;;;;;15.15;2.88;;;;;;;6.86;79.58;102653.13;5007146;28;20044;-65
2022/03/17 07:49:38;;;;;;;13.45;2.95;;;;;;;6.84;79.93;102665.22;5007548;28;20084;-61
2022/03/17 07:52:05;;;;;;;10.90;2.53;;;;;;;6.87;80.38;102667.69;5003343;28;20501;-64
2022/03/17 07:54:30;;;;;;;12.07;2.40;;;;;;;6.83;79.52;102660.97;4997384;28;20137;-61
2022/03/17 07:56:57;;;;;;;14.18;2.65;;;;;;;6.91;80.11;102661.53;4997610;28;20474;-63
2022/03/17 07:59:23;;;;;;;12.30;2.60;;;;;;;6.89;80.39;102667.66;5006702;28;20068;-61
2022/03/17 08:01:49;;;;;;;12.48;2.60;;;;;;;6.92;79.59;102670.09;4990249;28;20113;-61
2022/03/17 08:04:15;;;;;;;11.68;2.70;;;;;;;6.93;77.92;102670.03;5007255;28;20108;-61
2022/03/17 08:06:41;;;;;;;12.88;2.45;;;;;;;6.93;79.05;102693.25;5006734;28;20022;-64
2022/03/17 08:09:06;;;;;;;14.32;2.40;;;;;;;6.91;78.58;102702.78;4999642;28;20547;-62
2022/03/17 08:11:31;;;;;;;12.75;2.92;;;;;;;6.89;77.74;102714.09;5006379;28;20037;-68
2022/03/17 08:13:57;;;;;;;12.25;2.55;;;;;;;6.83;78.93;102704.81;5006535;28;20030;-63
2022/03/17 08:16:23;;;;;;;11.57;2.78;;;;;;;6.77;78.54;102710.19;5006360;28;20602;-62
2022/03/17 08:18:49;;;;;;;14.40;3.40;;;;;;;6.82;78.69;102713.44;5007322;28;20426;-62
2022/03/17 08:21:15;;;;;;;13.13;2.70;;;;;;;6.86;78.01;102725.31;5006168;28;20036;-61
2022/03/17 08:23:40;;;;;;;18.67;3.15;;;;;;;6.89;78.06;102714.91;4988817;28;20030;-62
2022/03/17 08:26:06;;;;;;;13.88;2.95;;;;;;;6.91;77.49;102731.16;5005903;28;20040;-63
2022/03/17 08:28:31;;;;;;;14.13;2.78;;;;;;;6.97;77.68;102732.69;4987873;28;20061;-61
2022/03/17 08:30:57;;;;;;;11.95;2.45;;;;;;;6.99;76.17;102738.63;5005720;28;20029;-61
2022/03/17 08:33:23;;;;;;;13.60;2.70;;;;;;;7.00;76.47;102742.06;5006219;28;20422;-62
2022/03/17 08:35:48;;;;;;;15.18;2.75;;;;;;;7.08;76.30;102745.22;5006110;28;20038;-62
2022/03/17 08:38:14;;;;;;;12.10;2.67;;;;;;;7.12;74.99;102754.53;5004323;28;20044;-62
2022/03/17 08:40:40;;;;;;;10.48;2.50;;;;;;;7.12;74.72;102751.94;4987392;28;20034;-61
2022/03/17 08:43:07;;;;;;;11.55;2.40;;;;;;;7.15;74.15;102767.31;5001712;28;20116;-65
2022/03/17 08:51:01;;;;;;;10.30;2.35;;;;;;;7.24;72.58;102774.72;4999063;28;20482;-63
2022/03/17 08:53:26;;;;;;;9.48;2.15;;;;;;;7.29;73.33;102787.47;5005800;28;20135;-62
2022/03/17 08:55:52;;;;;;;12.68;2.50;;;;;;;7.26;73.48;102780.66;4988049;28;20033;-63
2022/03/17 08:58:17;;;;;;;14.40;2.28;;;;;;;7.32;72.27;102793.34;5005296;28;20029;-61
2022/03/17 09:00:44;;;;;;;13.20;2.60;;;;;;;7.33;72.33;102795.03;5006709;28;20034;-63
2022/03/17 09:03:09;;;;;;;13.30;2.40;;;;;;;7.31;70.85;102799.41;5006417;28;20049;-61
2022/03/17 09:05:35;;;;;;;12.48;2.67;;;;;;;7.30;71.57;102802.91;4988183;28;20042;-62
2022/03/17 09:08:04;;;;;;;13.80;2.60;;;;;;;7.32;70.78;102806.25;5006609;28;20037;-62
2022/03/17 09:10:30;;;;;;;12.82;2.63;;;;;;;7.32;70.85;102811.41;4997225;28;20124;-61
2022/03/17 09:12:57;;;;;;;16.10;2.50;;;;;;;7.36;71.60;102822.47;5005916;28;20532;-61
2022/03/17 09:15:27;;;;;;;14.20;2.30;;;;;;;7.37;71.07;102825.00;5006095;28;20037;-64
2022/03/17 09:17:53;;;;;;;10.23;2.35;;;;;;;7.40;71.06;102824.91;5006023;28;20034;-61
2022/03/17 09:20:18;;;;;;;12.88;2.30;;;;;;;7.43;71.07;102829.09;5008884;28;20084;-61
2022/03/17 09:22:44;;;;;;;13.90;2.35;;;;;;;7.47;71.49;102835.00;5010518;28;20052;-62
2022/03/17 09:25:10;;;;;;;13.13;2.47;;;;;;;7.44;71.33;102836.78;5010049;28;20030;-61
2022/03/17 09:27:35;;;;;;;12.07;2.20;;;;;;;7.47;70.52;102841.00;4992003;28;20040;-62
2022/03/17 09:30:01;;;;;;;12.32;2.42;;;;;;;7.45;70.47;102841.06;5010183;28;20025;-62
2022/03/17 09:32:26;;;;;;;10.52;2.22;;;;;;;7.48;71.14;102841.84;5009868;28;20030;-63
2022/03/17 09:34:52;;;;;;;14.90;3.15;;;;;;;7.51;71.84;102852.03;5008877;28;20456;-61
2022/03/17 09:37:17;;;;;;;14.02;2.80;;;;;;;7.50;71.92;102850.38;5009853;28;20107;-62
2022/03/17 09:39:46;;;;;;;16.63;2.50;;;;;;;7.48;71.19;102857.34;5008420;28;20204;-65
2022/03/17 09:42:17;;;;;;;12.43;2.63;;;;;;;7.48;72.38;102849.59;5009425;28;20045;-65
2022/03/17 09:44:46;;;;;;;14.32;3.03;;;;;;;7.56;72.45;102865.63;5010158;28;20021;-62
2022/03/17 09:47:11;;;;;;;;;;;;;;;7.64;72.89;102872.22;5006543;28;20049;-63
2022/03/17 09:49:37;;;;;;;10.90;2.28;;;;;;;7.56;71.78;102878.53;5003608;28;19914;-62
2022/03/17 09:52:11;;;;;;;11.20;2.20;;;;;;;7.59;71.65;102887.03;5001306;28;20060;-64
2022/03/17 09:54:37;;;;;;;11.38;2.20;;;;;;;7.55;70.54;102893.19;4989506;28;20474;-64
2022/03/17 09:57:03;;;;;;;10.25;2.25;;;;;;;7.54;70.46;102903.59;5003762;28;20105;-62
2022/03/17 09:59:29;;;;;;;9.90;1.90;;;;;;;7.52;69.95;102900.22;5003196;28;20523;-61
2022/03/17 10:01:57;;;;;;;9.40;1.98;;;;;;;7.54;70.57;102908.75;5009426;28;20034;-61
2022/03/17 10:04:23;;;;;;;11.80;2.00;;;;;;;7.50;68.80;102912.34;5008766;28;20061;-65
2022/03/17 10:06:48;;;;;;;11.75;2.03;;;;;;;7.55;68.75;102910.44;5009417;28;20529;-61
2022/03/17 10:09:15;;;;;;;9.50;2.00;;;;;;;7.54;68.72;102908.75;4990201;28;20061;-61
2022/03/17 10:11:41;;;;;;;11.23;2.03;;;;;;;7.50;69.20;102917.50;5008672;28;20033;-61
2022/03/17 10:14:07;;;;;;;10.68;1.80;;;;;;;7.49;67.45;102926.97;5009381;28;20029;-61
2022/03/17 10:16:33;;;;;;;9.23;1.90;;;;;;;7.51;67.49;102939.84;5009191;28;20039;-60
2022/03/17 10:19:08;;;;;;;10.70;2.40;;;;;;;7.51;67.88;102939.84;5008945;28;20030;-61
2022/03/17 10:21:34;;;;;;;12.13;2.60;;;;;;;7.51;67.19;102945.00;5008458;28;20056;-62
2022/03/17 10:24:08;;;;;;;11.60;1.95;;;;;;;7.51;67.71;102950.16;5008649;28;20462;-60
2022/03/17 10:26:43;;;;;;;10.65;2.03;;;;;;;7.54;68.26;102952.66;5009120;28;20884;-61
2022/03/17 10:29:20;;;;;;;8.70;2.08;;;;;;;7.56;67.10;102959.44;4985369;28;20022;-62
2022/03/17 10:32:11;;;;;;;12.80;2.67;;;;;;;7.60;67.61;102961.03;5000986;28;20123;-61
2022/03/17 10:34:45;;;;;;;9.02;2.10;;;;;;;7.66;68.39;102954.81;4989345;28;20061;-61
2022/03/17 10:37:13;;;;;;;9.35;1.83;;;;;;;7.70;68.57;102974.47;4989432;28;20029;-63
2022/03/17 10:39:47;;;;;;;11.80;2.53;;;;;;;7.65;68.87;102953.13;4988492;28;20459;-61
2022/03/17 10:42:20;;;;;;;12.60;2.30;;;;;;;7.76;68.61;102970.84;4989022;28;20026;-60
2022/03/17 10:44:51;;;;;;;10.30;2.20;;;;;;;7.80;68.75;102973.25;5007419;28;20037;-61
2022/03/17 10:47:27;;;;;;;9.55;2.22;;;;;;;7.87;68.95;102974.72;4999493;28;20058;-63
2022/03/17 10:50:04;;;;;;;8.38;2.28;;;;;;;7.88;68.20;102981.56;5007340;28;20026;-62
2022/03/17 10:52:56;;;;;;;9.55;2.20;;;;;;;7.94;68.99;102986.50;5007390;28;20041;-61
2022/03/17 10:55:30;;;;;;;11.63;2.40;;;;;;;7.99;68.80;102987.19;4998283;28;20030;-67
2022/03/17 10:58:09;;;;;;;9.52;2.15;;;;;;;8.02;68.46;102982.78;4989049;28;20037;-64
2022/03/17 11:00:46;;;;;;;62.70;12.75;;;;;;;8.04;68.49;102991.34;5007799;28;20038;-67
2022/03/17 11:03:13;;;;;;;9.73;2.55;;;;;;;8.14;69.66;102998.72;4991102;28;20034;-63
2022/03/17 11:05:38;;;;;;;51.17;11.00;;;;;;;8.18;69.28;103007.19;4988215;28;20065;-65
2022/03/17 11:08:09;;;;;;;19.70;4.07;;;;;;;8.18;68.97;102999.44;5003058;28;20029;-60
2022/03/17 11:10:35;;;;;;;13.18;2.97;;;;;;;8.11;68.62;102992.81;5007971;28;20052;-61
2022/03/17 11:13:04;;;;;;;88.15;20.20;;;;;;;8.22;69.19;103012.19;5007734;28;20470;-61
2022/03/17 11:15:30;;;;;;;23.92;5.60;;;;;;;8.26;69.04;103018.13;5008118;28;20028;-61
2022/03/17 11:18:05;;;;;;;8.68;2.80;;;;;;;8.35;69.33;103022.09;4994486;28;20037;-62
2022/03/17 11:20:31;;;;;;;8.48;2.13;;;;;;;8.28;67.96;103008.53;5006449;28;20038;-62
2022/03/17 11:23:16;;;;;;;9.68;2.50;;;;;;;8.44;69.37;103027.81;4988197;28;20491;-64
2022/03/17 11:25:55;;;;;;;13.65;3.45;;;;;;;8.57;69.55;103027.34;4986060;28;20038;-62
2022/03/17 11:28:34;;;;;;;20.77;5.45;;;;;;;8.59;68.63;103031.53;4994619;28;20308;-62
2022/03/17 11:31:07;;;;;;;13.35;3.40;;;;;;;8.60;66.13;103047.91;5007869;28;20069;-62
2022/03/17 11:33:36;;;;;;;19.27;4.60;;;;;;;8.61;65.03;103041.84;5004245;28;20045;-61